sensor_id;sensor_type;location;lat;lon;timestamp;pressure;altitude;pressure_sealevel;temperature;humidity
44675;BME280;30388;52.038;-1.478;2022-08-19T00:01:00;66984.03;;;21.39;100.00
44675;BME280;30388;52.038;-1.478;2022-08-19T00:03:28;67024.77;;;21.63;100.00
44675;BME280;30388;52.038;-1.478;2022-08-19T00:05:55;67070.56;;;21.98;100.00
44675;BME280;30388;52.038;-1.478;2022-08-19T00:08:22;67060.80;;;21.86;100.00
44675;BME280;30388;52.038;-1.478;2022-08-19T00:10:50;67108.53;;;22.24;100.00
44675;BME280;30388;52.038;-1.478;2022-08-19T00:13:18;67119.84;;;22.11;100.00
44675;BME280;30388;52.038;-1.478;2022-08-19T00:15:45;67145.03;;;22.69;100.00
44675;BME280;30388;52.038;-1.478;2022-08-19T00:18:13;67174.75;;;22.80;100.00
44675;BME280;30388;52.038;-1.478;2022-08-19T00:20:41;67207.07;;;23.20;100.00
44675;BME280;30388;52.038;-1.478;2022-08-19T00:23:08;67206.30;;;23.19;100.00
44675;BME280;30388;52.038;-1.478;2022-08-19T00:25:36;67208.99;;;23.22;100.00
44675;BME280;30388;52.038;-1.478;2022-08-19T00:28:04;67241.63;;;23.63;100.00
44675;BME280;30388;52.038;-1.478;2022-08-19T00:30:31;67237.67;;;23.58;100.00
44675;BME280;30388;52.038;-1.478;2022-08-19T00:32:59;67240.70;;;23.62;100.00
44675;BME280;30388;52.038;-1.478;2022-08-19T00:35:26;67257.03;;;23.60;100.00
44675;BME280;30388;52.038;-1.478;2022-08-19T00:37:55;67269.03;;;23.75;100.00
44675;BME280;30388;52.038;-1.478;2022-08-19T00:40:23;67269.20;;;23.97;100.00
44675;BME280;30388;52.038;-1.478;2022-08-19T00:42:50;67258.17;;;23.62;100.00
44675;BME280;30388;52.038;-1.478;2022-08-19T00:45:21;67246.59;;;23.70;100.00
44675;BME280;30388;52.038;-1.478;2022-08-19T00:47:49;67241.43;;;23.63;100.00
44675;BME280;30388;52.038;-1.478;2022-08-19T00:50:18;67159.30;;;22.60;100.00
44675;BME280;30388;52.038;-1.478;2022-08-19T00:52:49;67159.47;;;23.09;100.00
44675;BME280;30388;52.038;-1.478;2022-08-19T00:55:20;67153.78;;;22.80;100.00
44675;BME280;30388;52.038;-1.478;2022-08-19T00:57:51;67009.17;;;21.22;100.00
44675;BME280;30388;52.038;-1.478;2022-08-19T01:00:21;67078.28;;;22.08;100.00
44675;BME280;30388;52.038;-1.478;2022-08-19T01:02:49;67017.60;;;21.54;100.00
44675;BME280;30388;52.038;-1.478;2022-08-19T01:05:20;67105.85;;;22.20;100.00
44675;BME280;30388;52.038;-1.478;2022-08-19T01:07:49;67041.26;;;21.61;100.00
44675;BME280;30388;52.038;-1.478;2022-08-19T01:10:20;67052.22;;;21.75;100.00
44675;BME280;30388;52.038;-1.478;2022-08-19T01:12:48;67068.06;;;21.95;100.00
44675;BME280;30388;52.038;-1.478;2022-08-19T01:15:19;67059.38;;;21.84;100.00
44675;BME280;30388;52.038;-1.478;2022-08-19T01:17:48;67080.34;;;22.10;100.00
44675;BME280;30388;52.038;-1.478;2022-08-19T01:20:18;67089.76;;;22.22;100.00
44675;BME280;30388;52.038;-1.478;2022-08-19T01:22:49;67108.13;;;22.23;100.00
44675;BME280;30388;52.038;-1.478;2022-08-19T01:25:19;67116.58;;;22.34;100.00
44675;BME280;30388;52.038;-1.478;2022-08-19T01:27:49;67029.91;;;21.70;100.00
44675;BME280;30388;52.038;-1.478;2022-08-19T01:30:19;66943.93;;;20.40;100.00
44675;BME280;30388;52.038;-1.478;2022-08-19T01:32:46;67009.44;;;21.22;100.00
44675;BME280;30388;52.038;-1.478;2022-08-19T01:35:14;66971.52;;;21.23;100.00
44675;BME280;30388;52.038;-1.478;2022-08-19T01:37:43;67063.82;;;22.12;100.00
44675;BME280;30388;52.038;-1.478;2022-08-19T01:40:11;67091.93;;;22.03;100.00
44675;BME280;30388;52.038;-1.478;2022-08-19T01:42:38;67040.19;;;21.81;100.00
44675;BME280;30388;52.038;-1.478;2022-08-19T01:45:06;67065.17;;;21.91;100.00
44675;BME280;30388;52.038;-1.478;2022-08-19T01:47:34;66974.36;;;21.00;100.00
44675;BME280;30388;52.038;-1.478;2022-08-19T01:50:03;66947.10;;;20.66;100.00
44675;BME280;30388;52.038;-1.478;2022-08-19T01:52:30;66982.70;;;21.37;100.00
44675;BME280;30388;52.038;-1.478;2022-08-19T01:54:58;66945.08;;;20.63;100.00
44675;BME280;30388;52.038;-1.478;2022-08-19T01:57:25;66953.41;;;20.52;100.00
44675;BME280;30388;52.038;-1.478;2022-08-19T01:59:53;66944.84;;;20.63;100.00
44675;BME280;30388;52.038;-1.478;2022-08-19T02:02:20;67001.72;;;21.34;100.00
44675;BME280;30388;52.038;-1.478;2022-08-19T02:04:47;67017.85;;;21.32;100.00
44675;BME280;30388;52.038;-1.478;2022-08-19T02:07:14;66962.70;;;20.85;100.00
44675;BME280;30388;52.038;-1.478;2022-08-19T02:09:42;66819.12;;;19.32;100.00
44675;BME280;30388;52.038;-1.478;2022-08-19T02:12:08;66751.17;;;18.91;100.00
44675;BME280;30388;52.038;-1.478;2022-08-19T02:14:36;66814.19;;;19.71;100.00
44675;BME280;30388;52.038;-1.478;2022-08-19T02:17:04;66805.57;;;19.16;100.00
44675;BME280;30388;52.038;-1.478;2022-08-19T02:19:31;66765.64;;;19.10;100.00
44675;BME280;30388;52.038;-1.478;2022-08-19T02:21:58;66929.15;;;20.70;100.00
44675;BME280;30388;52.038;-1.478;2022-08-19T02:24:26;66922.53;;;20.62;100.00
44675;BME280;30388;52.038;-1.478;2022-08-19T02:26:53;66827.59;;;19.87;100.00
44675;BME280;30388;52.038;-1.478;2022-08-19T02:29:20;66732.11;;;18.69;100.00
44675;BME280;30388;52.038;-1.478;2022-08-19T02:31:48;66804.85;;;19.59;100.00
44675;BME280;30388;52.038;-1.478;2022-08-19T02:34:16;66783.94;;;19.33;100.00
44675;BME280;30388;52.038;-1.478;2022-08-19T02:36:43;66689.92;;;18.65;100.00
44675;BME280;30388;52.038;-1.478;2022-08-19T02:39:11;66772.36;;;19.19;100.00
44675;BME280;30388;52.038;-1.478;2022-08-19T02:41:39;66821.81;;;19.58;100.00
44675;BME280;30388;52.038;-1.478;2022-08-19T02:44:06;66821.35;;;19.36;100.00
44675;BME280;30388;52.038;-1.478;2022-08-19T02:46:34;66962.05;;;21.12;100.00
44675;BME280;30388;52.038;-1.478;2022-08-19T02:49:05;67023.38;;;21.40;100.00
44675;BME280;30388;52.038;-1.478;2022-08-19T02:51:35;66909.96;;;20.20;100.00
44675;BME280;30388;52.038;-1.478;2022-08-19T02:54:04;66933.24;;;20.76;100.00
44675;BME280;30388;52.038;-1.478;2022-08-19T02:56:33;66990.76;;;20.99;100.00
44675;BME280;30388;52.038;-1.478;2022-08-19T02:59:00;66979.65;;;21.07;100.00
44675;BME280;30388;52.038;-1.478;2022-08-19T03:01:29;67041.87;;;21.63;100.00
44675;BME280;30388;52.038;-1.478;2022-08-19T03:03:59;66925.55;;;20.66;100.00
44675;BME280;30388;52.038;-1.478;2022-08-19T03:06:27;66859.49;;;19.56;100.00
44675;BME280;30388;52.038;-1.478;2022-08-19T03:08:54;66866.48;;;19.92;100.00
44675;BME280;30388;52.038;-1.478;2022-08-19T03:11:28;66852.96;;;19.97;100.00
44675;BME280;30388;52.038;-1.478;2022-08-19T03:13:57;67001.28;;;21.12;100.00
44675;BME280;30388;52.038;-1.478;2022-08-19T03:16:26;66981.29;;;21.09;100.00
44675;BME280;30388;52.038;-1.478;2022-08-19T03:18:57;67028.54;;;21.46;100.00
44675;BME280;30388;52.038;-1.478;2022-08-19T03:21:26;66975.50;;;21.02;100.00
44675;BME280;30388;52.038;-1.478;2022-08-19T03:23:54;67077.18;;;22.07;100.00
44675;BME280;30388;52.038;-1.478;2022-08-19T03:26:23;66987.50;;;21.17;100.00
44675;BME280;30388;52.038;-1.478;2022-08-19T03:28:50;66982.77;;;20.89;100.00
44675;BME280;30388;52.038;-1.478;2022-08-19T03:31:20;67045.86;;;21.67;100.00
44675;BME280;30388;52.038;-1.478;2022-08-19T03:33:48;67029.34;;;21.47;100.00
44675;BME280;30388;52.038;-1.478;2022-08-19T03:36:19;67022.48;;;21.38;100.00
44675;BME280;30388;52.038;-1.478;2022-08-19T03:38:49;66985.16;;;20.91;100.00
44675;BME280;30388;52.038;-1.478;2022-08-19T03:41:20;67071.15;;;21.99;100.00
44675;BME280;30388;52.038;-1.478;2022-08-19T03:43:49;66952.20;;;20.98;100.00
44675;BME280;30388;52.038;-1.478;2022-08-19T03:46:19;66917.13;;;20.55;100.00
44675;BME280;30388;52.038;-1.478;2022-08-19T03:48:47;66864.05;;;19.88;100.00
44675;BME280;30388;52.038;-1.478;2022-08-19T03:51:18;66892.11;;;19.98;100.00
44675;BME280;30388;52.038;-1.478;2022-08-19T03:53:46;66782.33;;;19.31;100.00
44675;BME280;30388;52.038;-1.478;2022-08-19T03:56:15;66820.65;;;19.34;100.00
44675;BME280;30388;52.038;-1.478;2022-08-19T03:58:42;66645.40;;;18.08;100.00
44675;BME280;30388;52.038;-1.478;2022-08-19T04:01:12;66819.45;;;19.77;100.00
44675;BME280;30388;52.038;-1.478;2022-08-19T04:03:39;66897.91;;;20.31;100.00
44675;BME280;30388;52.038;-1.478;2022-08-19T04:06:11;66868.09;;;20.38;100.00
44675;BME280;30388;52.038;-1.478;2022-08-19T04:08:38;66980.21;;;21.07;100.00
44675;BME280;30388;52.038;-1.478;2022-08-19T04:11:07;67016.54;;;21.54;100.00
44675;BME280;30388;52.038;-1.478;2022-08-19T04:13:35;67055.19;;;21.79;100.00
44675;BME280;30388;52.038;-1.478;2022-08-19T04:16:03;67048.19;;;21.70;100.00
44675;BME280;30388;52.038;-1.478;2022-08-19T04:18:30;66976.58;;;21.03;100.00
44675;BME280;30388;52.038;-1.478;2022-08-19T04:20:58;67021.17;;;21.59;100.00
44675;BME280;30388;52.038;-1.478;2022-08-19T04:23:25;67062.75;;;21.88;100.00
44675;BME280;30388;52.038;-1.478;2022-08-19T04:25:53;67050.62;;;21.73;100.00
44675;BME280;30388;52.038;-1.478;2022-08-19T04:28:21;67047.09;;;21.69;100.00
44675;BME280;30388;52.038;-1.478;2022-08-19T04:30:52;67073.22;;;22.01;100.00
44675;BME280;30388;52.038;-1.478;2022-08-19T04:33:24;67105.25;;;22.42;100.00
44675;BME280;30388;52.038;-1.478;2022-08-19T04:35:52;67014.32;;;21.28;100.00
44675;BME280;30388;52.038;-1.478;2022-08-19T04:38:21;66983.15;;;20.89;100.00
44675;BME280;30388;52.038;-1.478;2022-08-19T04:40:51;66915.25;;;20.53;100.00
44675;BME280;30388;52.038;-1.478;2022-08-19T04:43:18;66899.96;;;20.33;100.00
44675;BME280;30388;52.038;-1.478;2022-08-19T04:45:46;66953.98;;;21.01;100.00
44675;BME280;30388;52.038;-1.478;2022-08-19T04:48:14;66719.30;;;18.52;100.00
44675;BME280;30388;52.038;-1.478;2022-08-19T04:50:43;66756.83;;;18.99;100.00
44675;BME280;30388;52.038;-1.478;2022-08-19T04:53:11;66798.45;;;19.78;100.00
44675;BME280;30388;52.038;-1.478;2022-08-19T04:55:40;66779.43;;;19.28;100.00
44675;BME280;30388;52.038;-1.478;2022-08-19T04:58:08;66888.99;;;20.20;100.00
44675;BME280;30388;52.038;-1.478;2022-08-19T05:00:38;66614.47;;;17.47;100.00
44675;BME280;30388;52.038;-1.478;2022-08-19T05:03:05;66727.06;;;18.61;100.00
44675;BME280;30388;52.038;-1.478;2022-08-19T05:05:32;66644.27;;;18.07;100.00
44675;BME280;30388;52.038;-1.478;2022-08-19T05:07:59;66643.31;;;18.33;100.00
44675;BME280;30388;52.038;-1.478;2022-08-19T05:10:26;66648.25;;;18.12;100.00
44675;BME280;30388;52.038;-1.478;2022-08-19T05:12:52;66578.50;;;17.51;100.00
44675;BME280;30388;52.038;-1.478;2022-08-19T05:15:19;66565.89;;;17.35;100.00
44675;BME280;30388;52.038;-1.478;2022-08-19T05:17:46;66640.64;;;18.02;100.00
44675;BME280;30388;52.038;-1.478;2022-08-19T05:20:13;66579.57;;;17.75;100.00
44675;BME280;30388;52.038;-1.478;2022-08-19T05:22:42;66621.91;;;17.78;100.00
44675;BME280;30388;52.038;-1.478;2022-08-19T05:25:16;66568.08;;;17.11;100.00
44675;BME280;30388;52.038;-1.478;2022-08-19T05:27:43;66684.25;;;18.57;100.00
44675;BME280;30388;52.038;-1.478;2022-08-19T05:30:11;66651.68;;;18.16;100.00
44675;BME280;30388;52.038;-1.478;2022-08-19T05:32:39;66696.34;;;18.71;100.00
44675;BME280;30388;52.038;-1.478;2022-08-19T05:35:07;66459.38;;;16.24;100.00
44675;BME280;30388;52.038;-1.478;2022-08-19T05:37:35;66433.04;;;16.13;100.00
44675;BME280;30388;52.038;-1.478;2022-08-19T05:40:03;66330.37;;;15.10;100.00
44675;BME280;30388;52.038;-1.478;2022-08-19T05:42:30;66448.90;;;16.59;100.00
44675;BME280;30388;52.038;-1.478;2022-08-19T05:44:57;66589.60;;;17.65;100.00
44675;BME280;30388;52.038;-1.478;2022-08-19T05:47:24;66521.97;;;16.80;100.00
44675;BME280;30388;52.038;-1.478;2022-08-19T05:49:51;66577.98;;;17.72;100.00
44675;BME280;30388;52.038;-1.478;2022-08-19T05:52:19;66585.35;;;17.82;100.00
44675;BME280;30388;52.038;-1.478;2022-08-19T05:54:47;66619.28;;;17.76;100.00
44675;BME280;30388;52.038;-1.478;2022-08-19T05:57:15;66673.96;;;18.44;100.00
44675;BME280;30388;52.038;-1.478;2022-08-19T05:59:43;66734.25;;;18.97;100.00
44675;BME280;30388;52.038;-1.478;2022-08-19T06:02:11;66683.71;;;18.56;100.00
44675;BME280;30388;52.038;-1.478;2022-08-19T06:04:37;66603.09;;;17.55;100.00
44675;BME280;30388;52.038;-1.478;2022-08-19T06:07:04;66700.85;;;18.78;100.00
44675;BME280;30388;52.038;-1.478;2022-08-19T06:09:31;66647.97;;;18.12;100.00
44675;BME280;30388;52.038;-1.478;2022-08-19T06:11:59;66703.16;;;18.59;100.00
44675;BME280;30388;52.038;-1.478;2022-08-19T06:14:29;66569.74;;;17.13;100.00
44675;BME280;30388;52.038;-1.478;2022-08-19T06:16:57;66706.69;;;18.63;100.00
44675;BME280;30388;52.038;-1.478;2022-08-19T06:19:25;66675.49;;;18.24;100.00
44675;BME280;30388;52.038;-1.478;2022-08-19T06:21:52;66525.24;;;16.84;100.00
44675;BME280;30388;52.038;-1.478;2022-08-19T06:24:22;66608.58;;;17.62;100.00
44675;BME280;30388;52.038;-1.478;2022-08-19T06:26:51;66669.26;;;18.65;100.00
44675;BME280;30388;52.038;-1.478;2022-08-19T06:29:23;66446.00;;;16.07;100.00
44675;BME280;30388;52.038;-1.478;2022-08-19T06:31:53;66461.54;;;16.26;100.00
44675;BME280;30388;52.038;-1.478;2022-08-19T06:34:21;66535.74;;;17.20;100.00
44675;BME280;30388;52.038;-1.478;2022-08-19T06:36:50;66559.84;;;17.50;100.00
44675;BME280;30388;52.038;-1.478;2022-08-19T06:39:21;66458.85;;;16.46;100.00
44675;BME280;30388;52.038;-1.478;2022-08-19T06:41:50;66424.00;;;16.02;100.00
44675;BME280;30388;52.038;-1.478;2022-08-19T06:44:20;66302.10;;;15.24;100.00
44675;BME280;30388;52.038;-1.478;2022-08-19T06:46:48;66237.53;;;14.65;100.00
44675;BME280;30388;52.038;-1.478;2022-08-19T06:49:16;66340.32;;;15.45;100.00
44675;BME280;30388;52.038;-1.478;2022-08-19T06:51:45;66286.53;;;14.56;100.00
44675;BME280;30388;52.038;-1.478;2022-08-19T06:54:14;66430.69;;;16.37;100.00
44675;BME280;30388;52.038;-1.478;2022-08-19T06:56:42;66460.63;;;16.48;100.00
44675;BME280;30388;52.038;-1.478;2022-08-19T06:59:12;66512.63;;;17.13;100.00
44675;BME280;30388;52.038;-1.478;2022-08-19T07:01:42;66490.30;;;16.85;100.00
44675;BME280;30388;52.038;-1.478;2022-08-19T07:04:10;66449.84;;;16.12;100.00
44675;BME280;30388;52.038;-1.478;2022-08-19T07:06:38;66411.16;;;16.12;100.00
44675;BME280;30388;52.038;-1.478;2022-08-19T07:09:07;66490.85;;;17.13;100.00
44675;BME280;30388;52.038;-1.478;2022-08-19T07:11:44;66506.45;;;16.83;100.00
44675;BME280;30388;52.038;-1.478;2022-08-19T07:14:13;66632.75;;;18.41;100.00
44675;BME280;30388;52.038;-1.478;2022-08-19T07:16:41;66590.16;;;17.66;100.00
44675;BME280;30388;52.038;-1.478;2022-08-19T07:19:09;66376.42;;;15.68;100.00
44675;BME280;30388;52.038;-1.478;2022-08-19T07:21:38;66304.87;;;15.28;100.00
44675;BME280;30388;52.038;-1.478;2022-08-19T07:24:08;66357.30;;;15.93;100.00
44675;BME280;30388;52.038;-1.478;2022-08-19T07:26:40;66326.79;;;15.05;100.00
44675;BME280;30388;52.038;-1.478;2022-08-19T07:29:09;66312.66;;;15.59;100.00
44675;BME280;30388;52.038;-1.478;2022-08-19T07:31:40;66265.83;;;14.78;100.00
44675;BME280;30388;52.038;-1.478;2022-08-19T07:34:12;66353.57;;;15.39;100.00
44675;BME280;30388;52.038;-1.478;2022-08-19T07:36:41;66285.92;;;15.03;100.00
44675;BME280;30388;52.038;-1.478;2022-08-19T07:39:13;66196.95;;;14.35;100.00
44675;BME280;30388;52.038;-1.478;2022-08-19T07:41:42;66173.61;;;14.07;100.00
44675;BME280;30388;52.038;-1.478;2022-08-19T07:44:11;66188.87;;;14.25;100.00
44675;BME280;30388;52.038;-1.478;2022-08-19T07:46:43;66368.07;;;16.07;100.00
44675;BME280;30388;52.038;-1.478;2022-08-19T07:49:25;66224.99;;;14.71;100.00
44675;BME280;30388;52.038;-1.478;2022-08-19T07:51:59;66397.80;;;15.95;100.00
44675;BME280;30388;52.038;-1.478;2022-08-19T07:54:29;66547.73;;;17.57;100.00
44675;BME280;30388;52.038;-1.478;2022-08-19T07:56:58;66352.86;;;15.39;100.00
44675;BME280;30388;52.038;-1.478;2022-08-19T07:59:26;66432.33;;;16.37;100.00
44675;BME280;30388;52.038;-1.478;2022-08-19T08:01:54;66377.58;;;15.70;100.00
44675;BME280;30388;52.038;-1.478;2022-08-19T08:04:23;66331.31;;;15.60;100.00
44675;BME280;30388;52.038;-1.478;2022-08-19T08:06:51;66358.91;;;15.68;100.00
44675;BME280;30388;52.038;-1.478;2022-08-19T08:09:23;66297.10;;;15.40;100.00
44675;BME280;30388;52.038;-1.478;2022-08-19T08:11:54;66375.18;;;16.14;100.00
44675;BME280;30388;52.038;-1.478;2022-08-19T08:14:25;66358.33;;;15.45;100.00
44675;BME280;30388;52.038;-1.478;2022-08-19T08:16:53;66349.15;;;16.04;100.00
44675;BME280;30388;52.038;-1.478;2022-08-19T08:19:23;66381.04;;;15.97;100.00
44675;BME280;30388;52.038;-1.478;2022-08-19T08:21:52;66353.60;;;15.62;100.00
44675;BME280;30388;52.038;-1.478;2022-08-19T08:24:19;66500.43;;;16.97;100.00
44675;BME280;30388;52.038;-1.478;2022-08-19T08:26:48;66536.32;;;17.42;100.00
44675;BME280;30388;52.038;-1.478;2022-08-19T08:29:16;66447.68;;;16.58;100.00
44675;BME280;30388;52.038;-1.478;2022-08-19T08:31:44;66504.87;;;16.81;100.00
44675;BME280;30388;52.038;-1.478;2022-08-19T08:34:12;66508.82;;;16.86;100.00
44675;BME280;30388;52.038;-1.478;2022-08-19T08:36:42;66575.62;;;17.47;100.00
44675;BME280;30388;52.038;-1.478;2022-08-19T08:39:11;66574.16;;;17.67;100.00
44675;BME280;30388;52.038;-1.478;2022-08-19T08:41:46;66599.48;;;17.99;100.00
44675;BME280;30388;52.038;-1.478;2022-08-19T08:44:21;66416.97;;;16.68;100.00
44675;BME280;30388;52.038;-1.478;2022-08-19T08:46:52;66372.45;;;16.13;100.00
44675;BME280;30388;52.038;-1.478;2022-08-19T08:49:31;66530.10;;;17.35;100.00
44675;BME280;30388;52.038;-1.478;2022-08-19T08:52:04;66529.59;;;17.60;100.00
44675;BME280;30388;52.038;-1.478;2022-08-19T08:54:36;66546.98;;;17.56;100.00
44675;BME280;30388;52.038;-1.478;2022-08-19T08:57:11;66637.56;;;18.47;100.00
44675;BME280;30388;52.038;-1.478;2022-08-19T08:59:41;66654.95;;;18.69;100.00
44675;BME280;30388;52.038;-1.478;2022-08-19T09:02:10;66549.80;;;17.37;100.00
44675;BME280;30388;52.038;-1.478;2022-08-19T09:04:38;66608.57;;;17.62;100.00
44675;BME280;30388;52.038;-1.478;2022-08-19T09:07:18;66699.29;;;18.76;100.00
44675;BME280;30388;52.038;-1.478;2022-08-19T09:09:51;66582.91;;;17.78;100.00
44675;BME280;30388;52.038;-1.478;2022-08-19T09:12:25;66555.59;;;17.44;100.00
44675;BME280;30388;52.038;-1.478;2022-08-19T09:15:02;66522.78;;;17.03;100.00
44675;BME280;30388;52.038;-1.478;2022-08-19T09:17:31;66594.67;;;17.93;100.00
44675;BME280;30388;52.038;-1.478;2022-08-19T09:20:00;66621.13;;;18.04;100.00
44675;BME280;30388;52.038;-1.478;2022-08-19T09:22:28;66745.07;;;19.33;100.00
44675;BME280;30388;52.038;-1.478;2022-08-19T09:24:55;66737.97;;;19.24;100.00
44675;BME280;30388;52.038;-1.478;2022-08-19T09:27:25;66725.42;;;18.86;100.00
44675;BME280;30388;52.038;-1.478;2022-08-19T09:29:53;66640.82;;;18.27;100.00
44675;BME280;30388;52.038;-1.478;2022-08-19T09:32:21;66747.67;;;19.36;100.00
44675;BME280;30388;52.038;-1.478;2022-08-19T09:34:49;66752.00;;;19.42;100.00
44675;BME280;30388;52.038;-1.478;2022-08-19T09:37:16;66744.20;;;19.32;100.00
44675;BME280;30388;52.038;-1.478;2022-08-19T09:39:43;66538.54;;;17.45;100.00
44675;BME280;30388;52.038;-1.478;2022-08-19T09:42:10;66631.17;;;18.62;100.00
44675;BME280;30388;52.038;-1.478;2022-08-19T09:44:38;66557.47;;;17.96;100.00
44675;BME280;30388;52.038;-1.478;2022-08-19T09:47:06;66626.77;;;18.34;100.00
44675;BME280;30388;52.038;-1.478;2022-08-19T09:49:34;66573.20;;;17.67;100.00
44675;BME280;30388;52.038;-1.478;2022-08-19T09:52:01;66639.25;;;18.27;100.00
44675;BME280;30388;52.038;-1.478;2022-08-19T09:54:28;66683.77;;;18.83;100.00
44675;BME280;30388;52.038;-1.478;2022-08-19T09:56:58;66728.63;;;19.12;100.00
44675;BME280;30388;52.038;-1.478;2022-08-19T09:59:27;66704.20;;;18.82;100.00
44675;BME280;30388;52.038;-1.478;2022-08-19T10:01:54;66776.61;;;19.51;100.00
44675;BME280;30388;52.038;-1.478;2022-08-19T10:04:23;66753.63;;;19.44;100.00
44675;BME280;30388;52.038;-1.478;2022-08-19T10:06:50;66806.46;;;19.61;100.00
44675;BME280;30388;52.038;-1.478;2022-08-19T10:09:17;66850.66;;;20.16;100.00
44675;BME280;30388;52.038;-1.478;2022-08-19T10:11:45;66820.70;;;19.79;100.00
44675;BME280;30388;52.038;-1.478;2022-08-19T10:14:12;66580.84;;;17.98;100.00
44675;BME280;30388;52.038;-1.478;2022-08-19T10:16:39;66662.36;;;18.78;100.00
44675;BME280;30388;52.038;-1.478;2022-08-19T10:19:07;66790.94;;;19.91;100.00
44675;BME280;30388;52.038;-1.478;2022-08-19T10:21:35;66885.23;;;20.60;100.00
44675;BME280;30388;52.038;-1.478;2022-08-19T10:24:05;66833.05;;;19.94;100.00
44675;BME280;30388;52.038;-1.478;2022-08-19T10:26:37;66849.90;;;20.42;100.00
44675;BME280;30388;52.038;-1.478;2022-08-19T10:29:05;66987.53;;;21.44;100.00
44675;BME280;30388;52.038;-1.478;2022-08-19T10:31:35;66937.79;;;21.04;100.00
44675;BME280;30388;52.038;-1.478;2022-08-19T10:34:02;66896.04;;;20.51;100.00
44675;BME280;30388;52.038;-1.478;2022-08-19T10:36:31;66885.49;;;20.60;100.00
44675;BME280;30388;52.038;-1.478;2022-08-19T10:39:00;66968.24;;;21.41;100.00
44675;BME280;30388;52.038;-1.478;2022-08-19T10:41:30;66866.30;;;20.14;100.00
44675;BME280;30388;52.038;-1.478;2022-08-19T10:43:59;66786.71;;;19.63;100.00
44675;BME280;30388;52.038;-1.478;2022-08-19T10:46:28;66807.54;;;20.11;100.00
44675;BME280;30388;52.038;-1.478;2022-08-19T10:48:55;66860.85;;;20.29;100.00
44675;BME280;30388;52.038;-1.478;2022-08-19T10:51:22;66853.01;;;20.19;100.00
44675;BME280;30388;52.038;-1.478;2022-08-19T10:53:51;66917.39;;;20.56;100.00
44675;BME280;30388;52.038;-1.478;2022-08-19T10:56:18;66743.15;;;19.08;100.00
44675;BME280;30388;52.038;-1.478;2022-08-19T10:58:45;66811.03;;;20.16;100.00
44675;BME280;30388;52.038;-1.478;2022-08-19T11:01:12;66895.08;;;20.50;100.00
44675;BME280;30388;52.038;-1.478;2022-08-19T11:03:40;66820.27;;;20.27;100.00
44675;BME280;30388;52.038;-1.478;2022-08-19T11:06:08;66911.53;;;20.92;100.00
44675;BME280;30388;52.038;-1.478;2022-08-19T11:08:36;66998.88;;;21.57;100.00
44675;BME280;30388;52.038;-1.478;2022-08-19T11:11:05;66995.55;;;21.98;100.00
44675;BME280;30388;52.038;-1.478;2022-08-19T11:13:35;66955.62;;;21.04;100.00
44675;BME280;30388;52.038;-1.478;2022-08-19T11:16:05;67048.33;;;21.93;100.00
44675;BME280;30388;52.038;-1.478;2022-08-19T11:18:32;67067.35;;;21.94;100.00
44675;BME280;30388;52.038;-1.478;2022-08-19T11:21:07;67127.88;;;22.92;100.00
44675;BME280;30388;52.038;-1.478;2022-08-19T11:23:35;67106.08;;;22.43;100.00
44675;BME280;30388;52.038;-1.478;2022-08-19T11:26:03;66844.85;;;20.09;100.00
44675;BME280;30388;52.038;-1.478;2022-08-19T11:28:30;66929.98;;;20.71;100.00
44675;BME280;30388;52.038;-1.478;2022-08-19T11:30:57;66786.84;;;19.63;100.00
44675;BME280;30388;52.038;-1.478;2022-08-19T11:33:24;66741.01;;;19.28;100.00
44675;BME280;30388;52.038;-1.478;2022-08-19T11:35:52;66752.81;;;19.43;100.00
44675;BME280;30388;52.038;-1.478;2022-08-19T11:38:19;66794.31;;;19.72;100.00
44675;BME280;30388;52.038;-1.478;2022-08-19T11:40:55;66870.64;;;20.42;100.00
44675;BME280;30388;52.038;-1.478;2022-08-19T11:43:23;66934.87;;;20.77;100.00
44675;BME280;30388;52.038;-1.478;2022-08-19T11:45:50;67006.14;;;21.41;100.00
44675;BME280;30388;52.038;-1.478;2022-08-19T11:48:17;66940.38;;;20.85;100.00
44675;BME280;30388;52.038;-1.478;2022-08-19T11:50:44;66847.79;;;20.13;100.00
44675;BME280;30388;52.038;-1.478;2022-08-19T11:53:13;66651.18;;;18.64;100.00
44675;BME280;30388;52.038;-1.478;2022-08-19T11:55:40;66648.29;;;18.61;100.00
44675;BME280;30388;52.038;-1.478;2022-08-19T11:58:08;66675.88;;;18.47;100.00
44675;BME280;30388;52.038;-1.478;2022-08-19T12:00:36;66555.44;;;17.44;100.00
44675;BME280;30388;52.038;-1.478;2022-08-19T12:03:03;66815.73;;;20.22;100.00
44675;BME280;30388;52.038;-1.478;2022-08-19T12:05:31;66935.98;;;20.79;100.00
44675;BME280;30388;52.038;-1.478;2022-08-19T12:07:58;67024.64;;;21.64;100.00
44675;BME280;30388;52.038;-1.478;2022-08-19T12:10:25;67191.22;;;23.48;100.00
44675;BME280;30388;52.038;-1.478;2022-08-19T12:12:53;67207.80;;;23.48;100.00
44675;BME280;30388;52.038;-1.478;2022-08-19T12:15:21;67185.72;;;23.20;100.00
44675;BME280;30388;52.038;-1.478;2022-08-19T12:17:57;67149.88;;;22.48;100.00
44675;BME280;30388;52.038;-1.478;2022-08-19T12:20:25;66940.98;;;20.85;100.00
44675;BME280;30388;52.038;-1.478;2022-08-19T12:22:52;66917.60;;;20.56;100.00
44675;BME280;30388;52.038;-1.478;2022-08-19T12:25:20;66979.17;;;21.33;100.00
44675;BME280;30388;52.038;-1.478;2022-08-19T12:27:48;67055.46;;;22.02;100.00
44675;BME280;30388;52.038;-1.478;2022-08-19T12:30:16;67129.13;;;22.72;100.00
44675;BME280;30388;52.038;-1.478;2022-08-19T12:32:43;67073.07;;;22.02;100.00
44675;BME280;30388;52.038;-1.478;2022-08-19T12:35:11;67050.81;;;21.96;100.00
44675;BME280;30388;52.038;-1.478;2022-08-19T12:37:39;67091.74;;;22.47;100.00
44675;BME280;30388;52.038;-1.478;2022-08-19T12:40:07;67101.72;;;22.86;100.00
44675;BME280;30388;52.038;-1.478;2022-08-19T12:42:34;67198.60;;;23.59;100.00
44675;BME280;30388;52.038;-1.478;2022-08-19T12:45:02;67239.68;;;23.88;100.00
44675;BME280;30388;52.038;-1.478;2022-08-19T12:47:29;67182.18;;;22.89;100.00